sensor_id;sensor_type;location;lat;lon;timestamp;pressure;altitude;pressure_sealevel;temperature;humidity
29239;BME280;16267;48.194;11.546;2023-02-16T00:02:44;96998.50;;;2.05;91.01
29239;BME280;16267;48.194;11.546;2023-02-16T00:07:50;97000.72;;;2.03;90.83
29239;BME280;16267;48.194;11.546;2023-02-16T00:10:16;96999.13;;;2.01;90.78
29239;BME280;16267;48.194;11.546;2023-02-16T00:12:42;96999.91;;;2.02;90.41
29239;BME280;16267;48.194;11.546;2023-02-16T00:15:26;97000.25;;;2.00;90.47
29239;BME280;16267;48.194;11.546;2023-02-16T00:17:54;96997.13;;;1.98;90.06
29239;BME280;16267;48.194;11.546;2023-02-16T00:20:21;96992.16;;;1.97;90.75
29239;BME280;16267;48.194;11.546;2023-02-16T00:22:47;96986.88;;;1.97;90.53
29239;BME280;16267;48.194;11.546;2023-02-16T00:25:13;96989.06;;;1.95;90.59
29239;BME280;16267;48.194;11.546;2023-02-16T00:27:39;96983.00;;;1.94;90.21
29239;BME280;16267;48.194;11.546;2023-02-16T00:30:16;96980.66;;;1.93;90.35
29239;BME280;16267;48.194;11.546;2023-02-16T00:32:43;96971.16;;;1.92;90.43
29239;BME280;16267;48.194;11.546;2023-02-16T00:37:39;96968.81;;;1.90;90.17
29239;BME280;16267;48.194;11.546;2023-02-16T00:40:05;96967.28;;;1.89;89.80
29239;BME280;16267;48.194;11.546;2023-02-16T00:42:33;96970.22;;;1.88;90.06
29239;BME280;16267;48.194;11.546;2023-02-16T00:44:59;96964.16;;;1.87;90.36
29239;BME280;16267;48.194;11.546;2023-02-16T00:47:39;96963.69;;;1.85;89.99
29239;BME280;16267;48.194;11.546;2023-02-16T00:50:19;96958.75;;;1.84;90.25
29239;BME280;16267;48.194;11.546;2023-02-16T00:52:47;96960.63;;;1.83;89.94
29239;BME280;16267;48.194;11.546;2023-02-16T00:56:12;96973.06;;;1.83;89.67
29239;BME280;16267;48.194;11.546;2023-02-16T00:59:49;96964.34;;;1.82;90.06
29239;BME280;16267;48.194;11.546;2023-02-16T01:02:43;96965.75;;;1.79;89.85
29239;BME280;16267;48.194;11.546;2023-02-16T01:05:53;96966.41;;;1.76;89.89
29239;BME280;16267;48.194;11.546;2023-02-16T01:08:40;96954.25;;;1.75;89.58
29239;BME280;16267;48.194;11.546;2023-02-16T01:11:28;96959.88;;;1.74;89.69
29239;BME280;16267;48.194;11.546;2023-02-16T01:13:55;96966.91;;;1.70;89.31
29239;BME280;16267;48.194;11.546;2023-02-16T01:16:51;96957.38;;;1.69;89.50
29239;BME280;16267;48.194;11.546;2023-02-16T01:19:17;96962.25;;;1.67;89.57
29239;BME280;16267;48.194;11.546;2023-02-16T01:21:43;96962.56;;;1.65;89.40
29239;BME280;16267;48.194;11.546;2023-02-16T01:24:09;96972.66;;;1.63;89.23
29239;BME280;16267;48.194;11.546;2023-02-16T01:26:40;96974.06;;;1.61;89.23
29239;BME280;16267;48.194;11.546;2023-02-16T01:29:12;96965.69;;;1.59;89.45
29239;BME280;16267;48.194;11.546;2023-02-16T01:31:38;96977.34;;;1.58;89.51
29239;BME280;16267;48.194;11.546;2023-02-16T01:34:04;96979.22;;;1.57;89.47
29239;BME280;16267;48.194;11.546;2023-02-16T01:36:39;96985.94;;;1.54;89.27
29239;BME280;16267;48.194;11.546;2023-02-16T01:39:07;96983.63;;;1.53;89.12
29239;BME280;16267;48.194;11.546;2023-02-16T01:42:15;96975.97;;;1.51;89.22
29239;BME280;16267;48.194;11.546;2023-02-16T01:45:14;96975.50;;;1.49;88.95
29239;BME280;16267;48.194;11.546;2023-02-16T01:47:55;96973.19;;;1.48;88.85
29239;BME280;16267;48.194;11.546;2023-02-16T01:50:29;96971.19;;;1.45;88.45
29239;BME280;16267;48.194;11.546;2023-02-16T01:53:22;96963.09;;;1.41;88.28
29239;BME280;16267;48.194;11.546;2023-02-16T01:55:57;96963.41;;;1.40;88.67
29239;BME280;16267;48.194;11.546;2023-02-16T01:58:47;96973.88;;;1.36;88.53
29239;BME280;16267;48.194;11.546;2023-02-16T02:01:39;96979.47;;;1.34;88.00
29239;BME280;16267;48.194;11.546;2023-02-16T02:04:25;96972.47;;;1.30;87.97
29239;BME280;16267;48.194;11.546;2023-02-16T02:07:45;96965.03;;;1.23;86.16
29239;BME280;16267;48.194;11.546;2023-02-16T02:13:04;96944.66;;;1.15;86.78
29239;BME280;16267;48.194;11.546;2023-02-16T02:15:33;96955.09;;;1.11;87.38
29239;BME280;16267;48.194;11.546;2023-02-16T02:18:02;96953.22;;;1.12;87.67
29239;BME280;16267;48.194;11.546;2023-02-16T02:21:14;96951.97;;;1.09;88.03
29239;BME280;16267;48.194;11.546;2023-02-16T02:24:37;96947.63;;;1.05;87.51
29239;BME280;16267;48.194;11.546;2023-02-16T02:33:19;96947.00;;;0.99;87.60
29239;BME280;16267;48.194;11.546;2023-02-16T02:36:08;96956.34;;;0.97;87.96
29239;BME280;16267;48.194;11.546;2023-02-16T02:41:58;96942.22;;;0.93;88.02
29239;BME280;16267;48.194;11.546;2023-02-16T02:45:16;96939.44;;;0.89;87.74
29239;BME280;16267;48.194;11.546;2023-02-16T02:47:45;96943.16;;;0.88;87.63
29239;BME280;16267;48.194;11.546;2023-02-16T02:50:50;96937.56;;;0.81;86.02
29239;BME280;16267;48.194;11.546;2023-02-16T02:53:44;96937.25;;;0.74;86.35
29239;BME280;16267;48.194;11.546;2023-02-16T02:56:13;96936.03;;;0.71;86.50
29239;BME280;16267;48.194;11.546;2023-02-16T02:59:05;96935.53;;;0.69;87.07
29239;BME280;16267;48.194;11.546;2023-02-16T03:01:57;96936.16;;;0.66;86.75
29239;BME280;16267;48.194;11.546;2023-02-16T03:04:27;96925.94;;;0.64;87.11
29239;BME280;16267;48.194;11.546;2023-02-16T03:06:56;96929.97;;;0.62;87.25
29239;BME280;16267;48.194;11.546;2023-02-16T03:09:23;96932.13;;;0.60;87.30
29239;BME280;16267;48.194;11.546;2023-02-16T03:11:52;96935.88;;;0.59;87.45
29239;BME280;16267;48.194;11.546;2023-02-16T03:14:56;96935.41;;;0.57;87.38
29239;BME280;16267;48.194;11.546;2023-02-16T03:17:30;96934.16;;;0.54;87.02
29239;BME280;16267;48.194;11.546;2023-02-16T03:20:16;96929.97;;;0.53;87.67
29239;BME280;16267;48.194;11.546;2023-02-16T03:23:04;96932.16;;;0.51;87.38
29239;BME280;16267;48.194;11.546;2023-02-16T03:25:50;96934.31;;;0.49;87.77
29239;BME280;16267;48.194;11.546;2023-02-16T03:28:38;96932.28;;;0.46;87.44
29239;BME280;16267;48.194;11.546;2023-02-16T03:31:37;96941.31;;;0.45;87.17
29239;BME280;16267;48.194;11.546;2023-02-16T03:34:05;96941.63;;;0.43;87.43
29239;BME280;16267;48.194;11.546;2023-02-16T03:36:36;96947.53;;;0.40;87.30
29239;BME280;16267;48.194;11.546;2023-02-16T03:39:03;96942.56;;;0.39;87.39
29239;BME280;16267;48.194;11.546;2023-02-16T03:41:39;96944.72;;;0.37;87.06
29239;BME280;16267;48.194;11.546;2023-02-16T03:44:07;96942.38;;;0.35;87.30
29239;BME280;16267;48.194;11.546;2023-02-16T03:46:33;96942.72;;;0.34;87.38
29239;BME280;16267;48.194;11.546;2023-02-16T03:48:59;96945.97;;;0.31;87.04
29239;BME280;16267;48.194;11.546;2023-02-16T03:51:28;96947.03;;;0.30;87.26
29239;BME280;16267;48.194;11.546;2023-02-16T03:53:54;96956.06;;;0.29;87.28
29239;BME280;16267;48.194;11.546;2023-02-16T03:56:20;96956.34;;;0.27;87.30
29239;BME280;16267;48.194;11.546;2023-02-16T03:58:46;96967.25;;;0.26;87.28
29239;BME280;16267;48.194;11.546;2023-02-16T04:01:11;96960.72;;;0.23;87.23
29239;BME280;16267;48.194;11.546;2023-02-16T04:03:37;96965.22;;;0.22;87.41
29239;BME280;16267;48.194;11.546;2023-02-16T04:06:03;96963.97;;;0.20;87.02
29239;BME280;16267;48.194;11.546;2023-02-16T04:08:29;96971.13;;;0.19;86.89
29239;BME280;16267;48.194;11.546;2023-02-16T04:10:56;96961.94;;;0.17;87.34
29239;BME280;16267;48.194;11.546;2023-02-16T04:13:23;96967.53;;;0.15;87.11
29239;BME280;16267;48.194;11.546;2023-02-16T04:15:49;96972.34;;;0.13;87.09
29239;BME280;16267;48.194;11.546;2023-02-16T04:18:15;96966.59;;;0.11;87.24
29239;BME280;16267;48.194;11.546;2023-02-16T04:20:41;96959.75;;;0.10;86.86
29239;BME280;16267;48.194;11.546;2023-02-16T04:23:07;96962.22;;;0.07;87.01
29239;BME280;16267;48.194;11.546;2023-02-16T04:25:33;96959.88;;;0.05;86.49
29239;BME280;16267;48.194;11.546;2023-02-16T04:28:02;96953.38;;;0.03;86.42
29239;BME280;16267;48.194;11.546;2023-02-16T04:30:29;96956.31;;;0.01;86.85
29239;BME280;16267;48.194;11.546;2023-02-16T04:32:56;96953.97;;;-0.01;86.87
29239;BME280;16267;48.194;11.546;2023-02-16T04:35:23;96951.66;;;-0.02;86.76
29239;BME280;16267;48.194;11.546;2023-02-16T04:37:49;96955.38;;;-0.03;86.86
29239;BME280;16267;48.194;11.546;2023-02-16T04:40:16;96962.03;;;-0.06;86.61
29239;BME280;16267;48.194;11.546;2023-02-16T04:42:43;96961.25;;;-0.06;86.92
29239;BME280;16267;48.194;11.546;2023-02-16T04:45:10;96966.88;;;-0.08;87.04
29239;BME280;16267;48.194;11.546;2023-02-16T04:47:36;96959.25;;;-0.09;86.77
29239;BME280;16267;48.194;11.546;2023-02-16T04:50:03;96962.19;;;-0.11;86.73
29239;BME280;16267;48.194;11.546;2023-02-16T04:52:29;96958.31;;;-0.13;86.63
29239;BME280;16267;48.194;11.546;2023-02-16T04:54:55;96958.59;;;-0.15;86.77
29239;BME280;16267;48.194;11.546;2023-02-16T04:57:22;96963.88;;;-0.15;86.82
29239;BME280;16267;48.194;11.546;2023-02-16T04:59:49;96962.63;;;-0.17;86.78
29239;BME280;16267;48.194;11.546;2023-02-16T05:02:14;96965.28;;;-0.17;86.65
29239;BME280;16267;48.194;11.546;2023-02-16T05:04:40;96961.69;;;-0.21;86.98
29239;BME280;16267;48.194;11.546;2023-02-16T05:07:06;96962.47;;;-0.21;86.79
29239;BME280;16267;48.194;11.546;2023-02-16T05:09:32;96962.00;;;-0.23;86.76
29239;BME280;16267;48.194;11.546;2023-02-16T05:11:58;96964.94;;;-0.25;86.90
29239;BME280;16267;48.194;11.546;2023-02-16T05:14:42;96966.03;;;-0.26;86.90
29239;BME280;16267;48.194;11.546;2023-02-16T05:19:46;96962.13;;;-0.28;86.85
29239;BME280;16267;48.194;11.546;2023-02-16T05:22:13;96962.44;;;-0.30;86.85
29239;BME280;16267;48.194;11.546;2023-02-16T05:24:39;96963.06;;;-0.33;86.48
29239;BME280;16267;48.194;11.546;2023-02-16T05:27:15;96960.72;;;-0.34;86.55
29239;BME280;16267;48.194;11.546;2023-02-16T05:29:41;96963.66;;;-0.36;86.42
29239;BME280;16267;48.194;11.546;2023-02-16T05:32:06;96970.78;;;-0.36;86.35
29239;BME280;16267;48.194;11.546;2023-02-16T05:34:32;96974.81;;;-0.39;86.24
29239;BME280;16267;48.194;11.546;2023-02-16T05:36:58;96975.13;;;-0.40;86.30
29239;BME280;16267;48.194;11.546;2023-02-16T05:39:26;96978.06;;;-0.42;86.23
29239;BME280;16267;48.194;11.546;2023-02-16T05:41:52;96981.00;;;-0.43;86.06
29239;BME280;16267;48.194;11.546;2023-02-16T05:44:18;96983.94;;;-0.45;86.15
29239;BME280;16267;48.194;11.546;2023-02-16T05:46:44;96991.41;;;-0.47;86.29
29239;BME280;16267;48.194;11.546;2023-02-16T05:49:12;96992.47;;;-0.48;85.88
29239;BME280;16267;48.194;11.546;2023-02-16T05:51:38;96991.22;;;-0.51;86.04
29239;BME280;16267;48.194;11.546;2023-02-16T05:54:05;96992.59;;;-0.53;85.82
29239;BME280;16267;48.194;11.546;2023-02-16T05:56:31;96995.53;;;-0.55;85.64
29239;BME280;16267;48.194;11.546;2023-02-16T05:58:59;96994.56;;;-0.59;85.35
29239;BME280;16267;48.194;11.546;2023-02-16T06:01:27;96991.78;;;-0.62;85.03
29239;BME280;16267;48.194;11.546;2023-02-16T06:03:53;96988.97;;;-0.66;84.72
29239;BME280;16267;48.194;11.546;2023-02-16T06:06:18;96989.59;;;-0.69;84.51
29239;BME280;16267;48.194;11.546;2023-02-16T06:08:44;97000.84;;;-0.77;82.47
29239;BME280;16267;48.194;11.546;2023-02-16T06:11:11;96987.03;;;-0.83;83.16
29239;BME280;16267;48.194;11.546;2023-02-16T06:13:55;96999.72;;;-0.85;83.63
29239;BME280;16267;48.194;11.546;2023-02-16T06:16:29;96995.66;;;-0.91;83.23
29239;BME280;16267;48.194;11.546;2023-02-16T06:18:55;96987.53;;;-0.95;83.61
29239;BME280;16267;48.194;11.546;2023-02-16T06:21:22;96990.97;;;-0.94;84.73
29239;BME280;16267;48.194;11.546;2023-02-16T06:23:48;96995.94;;;-0.93;85.38
29239;BME280;16267;48.194;11.546;2023-02-16T06:26:15;96996.72;;;-0.92;85.61
29239;BME280;16267;48.194;11.546;2023-02-16T06:28:41;97001.97;;;-0.92;85.78
29239;BME280;16267;48.194;11.546;2023-02-16T06:31:10;97006.97;;;-0.91;85.80
29239;BME280;16267;48.194;11.546;2023-02-16T06:33:36;97005.09;;;-0.90;85.86
29239;BME280;16267;48.194;11.546;2023-02-16T06:36:02;97009.00;;;-0.87;86.30
29239;BME280;16267;48.194;11.546;2023-02-16T06:38:28;97020.03;;;-0.85;86.19
29239;BME280;16267;48.194;11.546;2023-02-16T06:40:54;97023.44;;;-0.85;86.11
29239;BME280;16267;48.194;11.546;2023-02-16T06:43:20;97034.16;;;-0.81;86.21
29239;BME280;16267;48.194;11.546;2023-02-16T06:45:47;97031.22;;;-0.80;86.27
29239;BME280;16267;48.194;11.546;2023-02-16T06:48:13;97032.00;;;-0.79;86.07
29239;BME280;16267;48.194;11.546;2023-02-16T06:50:39;97035.41;;;-0.79;85.88
29239;BME280;16267;48.194;11.546;2023-02-16T06:53:04;97029.84;;;-0.77;85.95
29239;BME280;16267;48.194;11.546;2023-02-16T06:55:30;97038.22;;;-0.75;86.21
29239;BME280;16267;48.194;11.546;2023-02-16T06:58:05;97029.25;;;-0.74;85.68
29239;BME280;16267;48.194;11.546;2023-02-16T07:00:32;97028.63;;;-0.71;86.05
29239;BME280;16267;48.194;11.546;2023-02-16T07:02:58;97033.31;;;-0.68;86.06
29239;BME280;16267;48.194;11.546;2023-02-16T07:05:24;97035.34;;;-0.65;86.30
29239;BME280;16267;48.194;11.546;2023-02-16T07:07:50;97035.81;;;-0.63;86.04
29239;BME280;16267;48.194;11.546;2023-02-16T07:10:16;97038.34;;;-0.58;86.08
29239;BME280;16267;48.194;11.546;2023-02-16T07:12:42;97037.41;;;-0.53;85.99
29239;BME280;16267;48.194;11.546;2023-02-16T07:15:09;97043.66;;;-0.49;86.15
29239;BME280;16267;48.194;11.546;2023-02-16T07:17:35;97037.78;;;-0.46;86.45
29239;BME280;16267;48.194;11.546;2023-02-16T07:20:00;97035.31;;;-0.42;86.26
29239;BME280;16267;48.194;11.546;2023-02-16T07:22:26;97049.47;;;-0.38;86.17
29239;BME280;16267;48.194;11.546;2023-02-16T07:24:54;97048.84;;;-0.35;86.18
29239;BME280;16267;48.194;11.546;2023-02-16T07:27:24;97043.75;;;-0.32;86.41
29239;BME280;16267;48.194;11.546;2023-02-16T07:29:50;97051.06;;;-0.29;87.07
29239;BME280;16267;48.194;11.546;2023-02-16T07:32:16;97042.53;;;-0.26;87.17
29239;BME280;16267;48.194;11.546;2023-02-16T07:34:42;97046.13;;;-0.21;87.46
29239;BME280;16267;48.194;11.546;2023-02-16T07:37:07;97042.56;;;-0.17;87.71
29239;BME280;16267;48.194;11.546;2023-02-16T07:39:33;97042.16;;;-0.10;87.95
29239;BME280;16267;48.194;11.546;2023-02-16T07:41:59;97042.31;;;-0.07;88.34
29239;BME280;16267;48.194;11.546;2023-02-16T07:44:25;97042.94;;;-0.01;89.18
29239;BME280;16267;48.194;11.546;2023-02-16T07:46:51;97044.34;;;0.05;89.93
29239;BME280;16267;48.194;11.546;2023-02-16T07:49:17;97051.53;;;0.13;90.59
29239;BME280;16267;48.194;11.546;2023-02-16T07:51:42;97045.06;;;0.19;91.05
29239;BME280;16267;48.194;11.546;2023-02-16T07:54:09;97046.47;;;0.26;91.81
29239;BME280;16267;48.194;11.546;2023-02-16T07:56:35;97047.09;;;0.31;92.88
29239;BME280;16267;48.194;11.546;2023-02-16T07:59:02;97047.25;;;0.35;93.22
29239;BME280;16267;48.194;11.546;2023-02-16T08:01:29;97052.41;;;0.40;93.57
29239;BME280;16267;48.194;11.546;2023-02-16T08:03:58;97048.84;;;0.44;93.84
29239;BME280;16267;48.194;11.546;2023-02-16T08:06:24;97049.16;;;0.52;93.95
29239;BME280;16267;48.194;11.546;2023-02-16T08:08:58;97049.63;;;0.62;94.88
29239;BME280;16267;48.194;11.546;2023-02-16T08:11:25;97054.00;;;0.76;95.74
29239;BME280;16267;48.194;11.546;2023-02-16T08:13:51;97053.72;;;0.95;96.66
29239;BME280;16267;48.194;11.546;2023-02-16T08:16:23;97059.75;;;1.13;97.25
29239;BME280;16267;48.194;11.546;2023-02-16T08:18:50;97061.63;;;1.21;97.28
29239;BME280;16267;48.194;11.546;2023-02-16T08:21:22;97064.56;;;1.37;97.70
29239;BME280;16267;48.194;11.546;2023-02-16T08:26:20;97059.84;;;1.60;99.54
29239;BME280;16267;48.194;11.546;2023-02-16T08:28:48;97059.66;;;1.73;99.85
29239;BME280;16267;48.194;11.546;2023-02-16T08:31:23;97059.31;;;1.92;100.00
29239;BME280;16267;48.194;11.546;2023-02-16T08:33:51;97067.69;;;2.03;100.00
29239;BME280;16267;48.194;11.546;2023-02-16T08:36:37;97061.69;;;2.15;100.00
29239;BME280;16267;48.194;11.546;2023-02-16T08:39:17;97069.13;;;2.30;100.00
29239;BME280;16267;48.194;11.546;2023-02-16T08:41:49;97060.50;;;2.42;100.00
29239;BME280;16267;48.194;11.546;2023-02-16T08:44:17;97062.44;;;2.54;100.00
29239;BME280;16267;48.194;11.546;2023-02-16T08:46:44;97068.88;;;2.74;100.00
29239;BME280;16267;48.194;11.546;2023-02-16T08:49:13;97064.09;;;2.88;100.00
29239;BME280;16267;48.194;11.546;2023-02-16T08:51:42;97063.25;;;2.96;100.00
29239;BME280;16267;48.194;11.546;2023-02-16T08:54:17;97059.09;;;3.07;100.00
29239;BME280;16267;48.194;11.546;2023-02-16T08:56:44;97055.75;;;3.19;100.00
29239;BME280;16267;48.194;11.546;2023-02-16T08:59:16;97058.03;;;3.42;100.00
29239;BME280;16267;48.194;11.546;2023-02-16T09:01:43;97052.75;;;3.54;100.00
29239;BME280;16267;48.194;11.546;2023-02-16T09:04:10;97051.59;;;3.64;100.00
29239;BME280;16267;48.194;11.546;2023-02-16T09:06:42;97058.34;;;3.73;100.00
29239;BME280;16267;48.194;11.546;2023-02-16T09:09:09;97058.38;;;3.86;100.00
29239;BME280;16267;48.194;11.546;2023-02-16T09:11:36;97059.81;;;3.95;100.00
29239;BME280;16267;48.194;11.546;2023-02-16T09:14:03;97054.41;;;4.04;100.00
29239;BME280;16267;48.194;11.546;2023-02-16T09:16:29;97061.84;;;4.11;100.00
29239;BME280;16267;48.194;11.546;2023-02-16T09:19:01;97050.22;;;4.15;100.00
29239;BME280;16267;48.194;11.546;2023-02-16T09:21:29;97053.34;;;4.30;100.00
29239;BME280;16267;48.194;11.546;2023-02-16T09:24:01;97054.44;;;4.41;100.00
29239;BME280;16267;48.194;11.546;2023-02-16T09:26:32;97057.72;;;4.62;100.00
29239;BME280;16267;48.194;11.546;2023-02-16T09:29:00;97057.72;;;4.75;100.00
29239;BME280;16267;48.194;11.546;2023-02-16T09:31:30;97060.81;;;4.77;100.00
29239;BME280;16267;48.194;11.546;2023-02-16T09:34:03;97052.13;;;4.92;100.00
29239;BME280;16267;48.194;11.546;2023-02-16T09:36:30;97055.41;;;5.01;100.00
29239;BME280;16267;48.194;11.546;2023-02-16T09:38:56;97050.63;;;5.19;100.00
29239;BME280;16267;48.194;11.546;2023-02-16T09:47:28;97048.13;;;5.54;100.00
29239;BME280;16267;48.194;11.546;2023-02-16T09:50:17;97046.78;;;5.61;95.31
29239;BME280;16267;48.194;11.546;2023-02-16T09:52:54;97045.06;;;5.84;92.82
29239;BME280;16267;48.194;11.546;2023-02-16T09:55:24;97041.16;;;6.25;91.66
29239;BME280;16267;48.194;11.546;2023-02-16T09:58:10;97043.31;;;6.71;87.01
29239;BME280;16267;48.194;11.546;2023-02-16T10:08:54;97047.16;;;7.09;74.05
29239;BME280;16267;48.194;11.546;2023-02-16T10:23:00;97031.31;;;8.27;73.02
29239;BME280;16267;48.194;11.546;2023-02-16T10:28:47;97037.63;;;8.39;71.42
29239;BME280;16267;48.194;11.546;2023-02-16T10:31:24;97034.69;;;8.47;71.34
29239;BME280;16267;48.194;11.546;2023-02-16T10:34:13;97037.50;;;8.58;67.55
29239;BME280;16267;48.194;11.546;2023-02-16T10:47:44;97032.34;;;9.33;63.34
29239;BME280;16267;48.194;11.546;2023-02-16T10:50:27;97027.91;;;9.48;64.46
29239;BME280;16267;48.194;11.546;2023-02-16T10:53:03;97025.63;;;9.50;60.95
29239;BME280;16267;48.194;11.546;2023-02-16T10:55:31;97023.72;;;9.50;62.03
29239;BME280;16267;48.194;11.546;2023-02-16T10:58:00;97029.03;;;9.47;59.80
29239;BME280;16267;48.194;11.546;2023-02-16T11:01:03;97016.78;;;9.46;58.49
29239;BME280;16267;48.194;11.546;2023-02-16T11:03:30;97016.16;;;9.59;59.02
29239;BME280;16267;48.194;11.546;2023-02-16T11:06:17;97021.22;;;9.68;58.06
29239;BME280;16267;48.194;11.546;2023-02-16T11:08:49;97007.50;;;9.77;53.66
29239;BME280;16267;48.194;11.546;2023-02-16T11:11:16;97009.63;;;9.98;55.64
29239;BME280;16267;48.194;11.546;2023-02-16T11:13:47;97018.53;;;10.13;56.27
29239;BME280;16267;48.194;11.546;2023-02-16T11:16:21;97005.66;;;10.29;54.10
29239;BME280;16267;48.194;11.546;2023-02-16T11:19:04;97008.78;;;10.38;55.48
29239;BME280;16267;48.194;11.546;2023-02-16T11:21:53;97004.31;;;10.57;53.92
29239;BME280;16267;48.194;11.546;2023-02-16T11:24:36;97003.63;;;10.74;50.16
29239;BME280;16267;48.194;11.546;2023-02-16T11:27:22;96988.69;;;10.77;49.78
29239;BME280;16267;48.194;11.546;2023-02-16T11:29:49;96982.66;;;11.01;48.83
29239;BME280;16267;48.194;11.546;2023-02-16T11:32:17;96981.19;;;11.22;51.60
29239;BME280;16267;48.194;11.546;2023-02-16T11:34:48;96981.66;;;11.45;50.14
29239;BME280;16267;48.194;11.546;2023-02-16T11:37:30;96973.22;;;11.68;50.25
29239;BME280;16267;48.194;11.546;2023-02-16T11:40:05;96973.97;;;11.69;48.17
29239;BME280;16267;48.194;11.546;2023-02-16T11:42:38;96967.47;;;11.70;47.73
29239;BME280;16267;48.194;11.546;2023-02-16T11:45:07;96965.97;;;11.90;47.66
29239;BME280;16267;48.194;11.546;2023-02-16T11:47:39;96965.97;;;12.12;47.63
29239;BME280;16267;48.194;11.546;2023-02-16T11:50:27;96959.41;;;12.31;46.87
29239;BME280;16267;48.194;11.546;2023-02-16T11:53:14;96951.34;;;12.09;44.52
29239;BME280;16267;48.194;11.546;2023-02-16T11:55:44;96960.19;;;11.88;42.67
29239;BME280;16267;48.194;11.546;2023-02-16T11:58:26;96952.88;;;11.81;43.70
29239;BME280;16267;48.194;11.546;2023-02-16T12:03:58;96950.19;;;11.78;43.56
29239;BME280;16267;48.194;11.546;2023-02-16T12:15:24;96928.28;;;11.76;43.67
29239;BME280;16267;48.194;11.546;2023-02-16T12:20:43;96919.84;;;11.81;41.48
29239;BME280;16267;48.194;11.546;2023-02-16T12:23:59;96921.38;;;11.86;41.86
29239;BME280;16267;48.194;11.546;2023-02-16T12:35:17;96907.94;;;11.86;39.15
29239;BME280;16267;48.194;11.546;2023-02-16T12:44:02;96912.16;;;11.94;40.54
29239;BME280;16267;48.194;11.546;2023-02-16T12:47:19;96906.38;;;11.99;40.85
29239;BME280;16267;48.194;11.546;2023-02-16T12:49:51;96896.78;;;11.98;39.24
29239;BME280;16267;48.194;11.546;2023-02-16T12:52:58;96890.22;;;12.02;38.80
29239;BME280;16267;48.194;11.546;2023-02-16T12:55:41;96885.63;;;12.03;37.98
29239;BME280;16267;48.194;11.546;2023-02-16T13:00:53;96885.59;;;12.17;41.95
29239;BME280;16267;48.194;11.546;2023-02-16T13:07:25;96874.81;;;12.24;39.06
29239;BME280;16267;48.194;11.546;2023-02-16T13:15:34;96867.09;;;12.34;40.00
29239;BME280;16267;48.194;11.546;2023-02-16T13:20:46;96867.09;;;12.34;38.38
29239;BME280;16267;48.194;11.546;2023-02-16T13:23:45;96857.50;;;12.36;40.37
29239;BME280;16267;48.194;11.546;2023-02-16T13:31:42;96855.94;;;12.39;39.37
29239;BME280;16267;48.194;11.546;2023-02-16T13:37:21;96856.66;;;12.46;39.10
29239;BME280;16267;48.194;11.546;2023-02-16T13:45:36;96856.28;;;12.48;39.10
29239;BME280;16267;48.194;11.546;2023-02-16T13:51:05;96852.03;;;12.50;39.49
29239;BME280;16267;48.194;11.546;2023-02-16T13:53:41;96857.44;;;12.50;39.85
29239;BME280;16267;48.194;11.546;2023-02-16T13:58:54;96850.13;;;12.51;39.08
29239;BME280;16267;48.194;11.546;2023-02-16T14:01:40;96845.88;;;12.46;39.02
29239;BME280;16267;48.194;11.546;2023-02-16T14:09:49;96845.50;;;12.48;37.78
29239;BME280;16267;48.194;11.546;2023-02-16T14:12:27;96837.38;;;12.55;38.98
29239;BME280;16267;48.194;11.546;2023-02-16T14:15:00;96840.88;;;12.56;37.57
29239;BME280;16267;48.194;11.546;2023-02-16T14:17:32;96838.91;;;12.60;37.23
29239;BME280;16267;48.194;11.546;2023-02-16T14:27:53;96829.22;;;12.73;38.63
29239;BME280;16267;48.194;11.546;2023-02-16T14:30:49;96836.16;;;12.74;37.77
29239;BME280;16267;48.194;11.546;2023-02-16T14:33:22;96826.50;;;12.77;38.66
29239;BME280;16267;48.194;11.546;2023-02-16T14:43:53;96823.88;;;12.69;35.59
29239;BME280;16267;48.194;11.546;2023-02-16T14:47:09;96830.47;;;12.61;35.59
29239;BME280;16267;48.194;11.546;2023-02-16T14:50:16;96831.63;;;12.57;35.67
29239;BME280;16267;48.194;11.546;2023-02-16T14:55:42;96830.81;;;12.63;36.35
29239;BME280;16267;48.194;11.546;2023-02-16T15:01:12;96830.47;;;12.61;37.57
29239;BME280;16267;48.194;11.546;2023-02-16T15:03:43;96829.28;;;12.62;37.42
29239;BME280;16267;48.194;11.546;2023-02-16T15:06:36;96825.06;;;12.58;36.81
29239;BME280;16267;48.194;11.546;2023-02-16T15:09:33;96830.88;;;12.56;37.21
29239;BME280;16267;48.194;11.546;2023-02-16T15:12:11;96828.16;;;12.56;37.65
29239;BME280;16267;48.194;11.546;2023-02-16T15:15:03;96815.09;;;12.51;37.17
29239;BME280;16267;48.194;11.546;2023-02-16T15:17:58;96817.41;;;12.53;38.04
29239;BME280;16267;48.194;11.546;2023-02-16T15:20:35;96813.19;;;12.52;37.87
29239;BME280;16267;48.194;11.546;2023-02-16T15:23:25;96816.66;;;12.48;37.05
29239;BME280;16267;48.194;11.546;2023-02-16T15:26:06;96817.41;;;12.49;38.50
29239;BME280;16267;48.194;11.546;2023-02-16T15:28:53;96822.41;;;12.47;38.48
29239;BME280;16267;48.194;11.546;2023-02-16T15:31:21;96815.13;;;12.44;38.85
29239;BME280;16267;48.194;11.546;2023-02-16T15:34:03;96821.31;;;12.41;39.06
29239;BME280;16267;48.194;11.546;2023-02-16T15:36:42;96821.72;;;12.39;38.89
29239;BME280;16267;48.194;11.546;2023-02-16T15:39:15;96827.88;;;12.33;38.31
29239;BME280;16267;48.194;11.546;2023-02-16T15:41:47;96822.91;;;12.31;39.04
29239;BME280;16267;48.194;11.546;2023-02-16T15:44:29;96819.06;;;12.28;38.40
29239;BME280;16267;48.194;11.546;2023-02-16T15:47:20;96822.13;;;12.27;38.28
29239;BME280;16267;48.194;11.546;2023-02-16T15:49:46;96824.47;;;12.25;38.19
29239;BME280;16267;48.194;11.546;2023-02-16T15:52:20;96824.44;;;12.21;38.81
29239;BME280;16267;48.194;11.546;2023-02-16T15:54:48;96832.53;;;12.21;39.38
29239;BME280;16267;48.194;11.546;2023-02-16T15:57:28;96831.75;;;12.21;41.58
29239;BME280;16267;48.194;11.546;2023-02-16T16:00:13;96831.03;;;12.17;39.94
29239;BME280;16267;48.194;11.546;2023-02-16T16:02:44;96836.41;;;12.17;39.38
29239;BME280;16267;48.194;11.546;2023-02-16T16:05:27;96839.84;;;12.14;38.78
29239;BME280;16267;48.194;11.546;2023-02-16T16:07:55;96837.19;;;12.10;38.49